EDV3455 KBOS-KLGA
Flight info
| Callsign | EDV3455 |
|---|---|
| Flight time | 0h 46m |
| Altitude | 12000 |
| Route | PATSS7 PATSS NELIE VADDR1 |
| Aircraft | CRJ9/M-SDFGIRWY/S |
Departure
| Time | 2026-05-07 23:25 |
|---|---|
| Airport | Boston Logan International Airport (KBOS) |
Arrival
| Time | 2026-05-08 00:12 |
|---|---|
| Airport | LaGuardia Airport (KLGA) |
| Time | Latitude | Longitude | Altitude | Speed | Heading |
|---|---|---|---|---|---|
| 2026-05-07 23:00 | 42.36408 | -71.02295 | 24 ft | 0 kts | 65° |
| 2026-05-07 23:14 | 42.36407 | -71.02297 | 24 ft | 1 kts | 65° |
| 2026-05-07 23:15 | 42.36404 | -71.02307 | 24 ft | 2 kts | 66° |
| 2026-05-07 23:15 | 42.36399 | -71.02324 | 24 ft | 2 kts | 72° |
| 2026-05-07 23:15 | 42.36399 | -71.02341 | 24 ft | 2 kts | 103° |
| 2026-05-07 23:15 | 42.36396 | -71.02334 | 24 ft | 2 kts | 125° |
| 2026-05-07 23:16 | 42.36340 | -71.02324 | 24 ft | 12 kts | 190° |
| 2026-05-07 23:16 | 42.36263 | -71.02345 | 24 ft | 10 kts | 182° |
| 2026-05-07 23:16 | 42.36200 | -71.02347 | 24 ft | 1 kts | 184° |
| 2026-05-07 23:17 | 42.36187 | -71.02348 | 24 ft | 6 kts | 184° |
| 2026-05-07 23:17 | 42.36109 | -71.02336 | 24 ft | 16 kts | 155° |
| 2026-05-07 23:17 | 42.36023 | -71.02235 | 25 ft | 17 kts | 121° |
| 2026-05-07 23:17 | 42.35967 | -71.02101 | 24 ft | 16 kts | 119° |
| 2026-05-07 23:18 | 42.35911 | -71.01983 | 25 ft | 14 kts | 123° |
| 2026-05-07 23:18 | 42.35865 | -71.01875 | 24 ft | 13 kts | 117° |
| 2026-05-07 23:18 | 42.35843 | -71.01767 | 25 ft | 11 kts | 102° |
| 2026-05-07 23:18 | 42.35828 | -71.01669 | 24 ft | 10 kts | 101° |
| 2026-05-07 23:19 | 42.35821 | -71.01609 | 24 ft | 9 kts | 83° |
| 2026-05-07 23:19 | 42.35869 | -71.01560 | 24 ft | 14 kts | 19° |
| 2026-05-07 23:19 | 42.35991 | -71.01500 | 24 ft | 24 kts | 19° |
| 2026-05-07 23:19 | 42.36162 | -71.01418 | 24 ft | 26 kts | 19° |
| 2026-05-07 23:20 | 42.36310 | -71.01341 | 24 ft | 17 kts | 40° |
| 2026-05-07 23:20 | 42.36297 | -71.01230 | 24 ft | 13 kts | 123° |
| 2026-05-07 23:20 | 42.36242 | -71.01090 | 24 ft | 19 kts | 112° |
| 2026-05-07 23:20 | 42.36186 | -71.00932 | 24 ft | 18 kts | 112° |
| 2026-05-07 23:21 | 42.36141 | -71.00785 | 24 ft | 16 kts | 114° |
| 2026-05-07 23:21 | 42.36103 | -71.00653 | 27 ft | 15 kts | 106° |
| 2026-05-07 23:21 | 42.36071 | -71.00525 | 24 ft | 14 kts | 108° |
| 2026-05-07 23:21 | 42.36042 | -71.00406 | 25 ft | 13 kts | 109° |
| 2026-05-07 23:22 | 42.36010 | -71.00278 | 24 ft | 14 kts | 110° |
| 2026-05-07 23:22 | 42.35978 | -71.00160 | 24 ft | 13 kts | 110° |
| 2026-05-07 23:22 | 42.35935 | -71.00057 | 24 ft | 14 kts | 129° |
| 2026-05-07 23:22 | 42.35862 | -70.99959 | 24 ft | 16 kts | 135° |
| 2026-05-07 23:23 | 42.35779 | -70.99845 | 24 ft | 18 kts | 135° |
| 2026-05-07 23:23 | 42.35686 | -70.99721 | 24 ft | 19 kts | 135° |
| 2026-05-07 23:23 | 42.35589 | -70.99591 | 24 ft | 20 kts | 135° |
| 2026-05-07 23:23 | 42.35499 | -70.99466 | 26 ft | 16 kts | 122° |
| 2026-05-07 23:24 | 42.35508 | -70.99330 | 25 ft | 14 kts | 60° |
| 2026-05-07 23:24 | 42.35571 | -70.99310 | 24 ft | 9 kts | 312° |
| 2026-05-07 23:24 | 42.35622 | -70.99378 | 26 ft | 23 kts | 316° |
| 2026-05-07 23:24 | 42.35931 | -70.99790 | 24 ft | 103 kts | 315° |
| 2026-05-07 23:25 | 42.36586 | -71.00670 | 232 ft | 148 kts | 314° |
| 2026-05-07 23:25 | 42.37345 | -71.01614 | 1159 ft | 150 kts | 317° |
| 2026-05-07 23:25 | 42.38157 | -71.02477 | 2168 ft | 148 kts | 318° |
| 2026-05-07 23:25 | 42.38982 | -71.03459 | 2772 ft | 170 kts | 316° |
| 2026-05-07 23:26 | 42.39895 | -71.04615 | 3401 ft | 188 kts | 313° |
| 2026-05-07 23:26 | 42.40498 | -71.06298 | 3875 ft | 220 kts | 281° |
| 2026-05-07 23:26 | 42.40782 | -71.08464 | 4395 ft | 253 kts | 276° |
| 2026-05-07 23:26 | 42.40454 | -71.10895 | 4613 ft | 260 kts | 251° |
| 2026-05-07 23:27 | 42.38593 | -71.15265 | 6403 ft | 276 kts | 237° |
| 2026-05-07 23:27 | 42.37444 | -71.17350 | 7431 ft | 275 kts | 235° |
| 2026-05-07 23:27 | 42.36308 | -71.19335 | 8608 ft | 269 kts | 236° |
| 2026-05-07 23:28 | 42.35203 | -71.21296 | 9808 ft | 262 kts | 237° |
| 2026-05-07 23:28 | 42.34139 | -71.23258 | 10940 ft | 254 kts | 238° |
| 2026-05-07 23:28 | 42.33132 | -71.25170 | 12094 ft | 245 kts | 239° |
| 2026-05-07 23:28 | 42.32147 | -71.27082 | 12877 ft | 254 kts | 239° |
| 2026-05-07 23:29 | 42.31088 | -71.29109 | 13294 ft | 273 kts | 238° |
| 2026-05-07 23:29 | 42.29953 | -71.31273 | 13633 ft | 292 kts | 238° |
| 2026-05-07 23:29 | 42.28742 | -71.33575 | 14027 ft | 309 kts | 237° |
| 2026-05-07 23:29 | 42.27467 | -71.35994 | 14433 ft | 322 kts | 237° |
| 2026-05-07 23:30 | 42.26177 | -71.38443 | 14946 ft | 331 kts | 237° |
| 2026-05-07 23:30 | 42.24827 | -71.40996 | 15544 ft | 338 kts | 237° |
| 2026-05-07 23:30 | 42.23435 | -71.43628 | 15826 ft | 349 kts | 236° |
| 2026-05-07 23:30 | 42.22064 | -71.46217 | 15938 ft | 341 kts | 236° |
| 2026-05-07 23:31 | 42.20683 | -71.48825 | 15998 ft | 343 kts | 236° |
| 2026-05-07 23:31 | 42.19292 | -71.51449 | 16019 ft | 344 kts | 236° |
| 2026-05-07 23:31 | 42.17907 | -71.54054 | 16027 ft | 346 kts | 236° |
| 2026-05-07 23:31 | 42.16531 | -71.56646 | 16053 ft | 349 kts | 236° |
| 2026-05-07 23:32 | 42.15116 | -71.59310 | 16040 ft | 351 kts | 236° |
| 2026-05-07 23:32 | 42.13693 | -71.61986 | 16041 ft | 352 kts | 236° |
| 2026-05-07 23:32 | 42.12262 | -71.64669 | 16032 ft | 353 kts | 236° |
| 2026-05-07 23:32 | 42.10823 | -71.67359 | 16035 ft | 354 kts | 236° |
| 2026-05-07 23:33 | 42.09459 | -71.70116 | 16023 ft | 354 kts | 244° |
| 2026-05-07 23:33 | 42.08639 | -71.73238 | 16037 ft | 355 kts | 252° |
| 2026-05-07 23:33 | 42.08013 | -71.76458 | 16035 ft | 356 kts | 256° |
| 2026-05-07 23:33 | 42.07544 | -71.79720 | 16039 ft | 353 kts | 258° |
| 2026-05-07 23:34 | 42.07118 | -71.82960 | 16033 ft | 349 kts | 258° |
| 2026-05-07 23:34 | 42.06688 | -71.86160 | 16043 ft | 346 kts | 257° |
| 2026-05-07 23:34 | 42.06254 | -71.89283 | 16040 ft | 343 kts | 257° |
| 2026-05-07 23:34 | 42.05802 | -71.92380 | 16050 ft | 341 kts | 257° |
| 2026-05-07 23:35 | 42.05336 | -71.95500 | 16040 ft | 339 kts | 257° |
| 2026-05-07 23:35 | 42.04871 | -71.98608 | 16049 ft | 341 kts | 257° |
| 2026-05-07 23:35 | 42.04396 | -72.01767 | 16043 ft | 348 kts | 257° |
| 2026-05-07 23:35 | 42.03911 | -72.04982 | 16051 ft | 354 kts | 257° |
| 2026-05-07 23:36 | 42.03418 | -72.08248 | 16055 ft | 359 kts | 257° |
| 2026-05-07 23:36 | 42.02914 | -72.11560 | 16059 ft | 362 kts | 257° |
| 2026-05-07 23:36 | 42.02414 | -72.14856 | 16054 ft | 357 kts | 257° |
| 2026-05-07 23:36 | 42.01922 | -72.18111 | 16030 ft | 353 kts | 257° |
| 2026-05-07 23:37 | 42.01438 | -72.21327 | 16035 ft | 350 kts | 257° |
| 2026-05-07 23:37 | 42.00960 | -72.24470 | 16042 ft | 347 kts | 257° |
| 2026-05-07 23:37 | 42.00497 | -72.27506 | 16062 ft | 345 kts | 257° |
| 2026-05-07 23:37 | 42.00011 | -72.30658 | 16048 ft | 343 kts | 257° |
| 2026-05-07 23:38 | 41.99477 | -72.33725 | 16040 ft | 341 kts | 250° |
| 2026-05-07 23:38 | 41.98404 | -72.36561 | 16048 ft | 341 kts | 240° |
| 2026-05-07 23:38 | 41.97151 | -72.39278 | 16058 ft | 343 kts | 239° |
| 2026-05-07 23:38 | 41.95878 | -72.41987 | 16060 ft | 344 kts | 239° |
| 2026-05-07 23:39 | 41.94616 | -72.44720 | 16066 ft | 345 kts | 240° |
| 2026-05-07 23:39 | 41.93397 | -72.47492 | 16060 ft | 345 kts | 241° |
| 2026-05-07 23:39 | 41.92180 | -72.50280 | 16059 ft | 346 kts | 240° |
| 2026-05-07 23:39 | 41.90965 | -72.53069 | 16059 ft | 347 kts | 240° |
| 2026-05-07 23:40 | 41.89743 | -72.55865 | 16062 ft | 347 kts | 240° |
| 2026-05-07 23:40 | 41.88518 | -72.58659 | 16029 ft | 348 kts | 240° |
| 2026-05-07 23:40 | 41.87331 | -72.61365 | 16059 ft | 348 kts | 240° |
| 2026-05-07 23:40 | 41.86104 | -72.64164 | 16057 ft | 348 kts | 240° |
| 2026-05-07 23:41 | 41.84874 | -72.66964 | 16055 ft | 349 kts | 240° |
| 2026-05-07 23:41 | 41.83640 | -72.69767 | 16054 ft | 349 kts | 240° |
| 2026-05-07 23:41 | 41.82404 | -72.72575 | 16045 ft | 350 kts | 240° |
| 2026-05-07 23:41 | 41.81170 | -72.75382 | 16043 ft | 350 kts | 240° |
| 2026-05-07 23:42 | 41.79931 | -72.78193 | 16042 ft | 350 kts | 240° |
| 2026-05-07 23:42 | 41.78690 | -72.81000 | 16041 ft | 350 kts | 240° |
| 2026-05-07 23:42 | 41.77451 | -72.83808 | 16049 ft | 351 kts | 240° |
| 2026-05-07 23:42 | 41.76210 | -72.86619 | 16045 ft | 351 kts | 240° |
| 2026-05-07 23:43 | 41.74967 | -72.89423 | 16047 ft | 351 kts | 240° |
| 2026-05-07 23:43 | 41.73740 | -72.92195 | 16038 ft | 351 kts | 240° |
| 2026-05-07 23:43 | 41.72518 | -72.94954 | 16032 ft | 351 kts | 240° |
| 2026-05-07 23:43 | 41.71290 | -72.97716 | 16041 ft | 351 kts | 240° |
| 2026-05-07 23:44 | 41.70044 | -73.00521 | 16056 ft | 351 kts | 240° |
| 2026-05-07 23:44 | 41.68798 | -73.03330 | 16056 ft | 351 kts | 240° |
| 2026-05-07 23:44 | 41.67548 | -73.06133 | 16061 ft | 351 kts | 240° |
| 2026-05-07 23:44 | 41.66295 | -73.08946 | 16046 ft | 352 kts | 240° |
| 2026-05-07 23:45 | 41.65040 | -73.11763 | 16021 ft | 353 kts | 240° |
| 2026-05-07 23:45 | 41.63800 | -73.14545 | 16014 ft | 353 kts | 240° |
| 2026-05-07 23:45 | 41.62539 | -73.17363 | 16011 ft | 353 kts | 240° |
| 2026-05-07 23:45 | 41.61278 | -73.20185 | 16009 ft | 354 kts | 240° |
| 2026-05-07 23:46 | 41.60018 | -73.23006 | 16011 ft | 354 kts | 240° |
| 2026-05-07 23:46 | 41.58754 | -73.25822 | 16011 ft | 354 kts | 240° |
| 2026-05-07 23:46 | 41.57490 | -73.28641 | 15999 ft | 354 kts | 240° |
| 2026-05-07 23:46 | 41.56268 | -73.31372 | 16016 ft | 354 kts | 240° |
| 2026-05-07 23:47 | 41.54994 | -73.34200 | 15688 ft | 355 kts | 240° |
| 2026-05-07 23:47 | 41.53744 | -73.36974 | 15233 ft | 344 kts | 240° |
| 2026-05-07 23:47 | 41.52517 | -73.39708 | 14787 ft | 344 kts | 240° |
| 2026-05-07 23:47 | 41.51283 | -73.42446 | 14348 ft | 344 kts | 241° |
| 2026-05-07 23:48 | 41.50046 | -73.45181 | 13902 ft | 344 kts | 241° |
| 2026-05-07 23:48 | 41.48814 | -73.47916 | 13455 ft | 344 kts | 241° |
| 2026-05-07 23:48 | 41.47600 | -73.50602 | 12986 ft | 344 kts | 241° |
| 2026-05-07 23:48 | 41.46369 | -73.53320 | 12518 ft | 338 kts | 242° |
| 2026-05-07 23:49 | 41.45181 | -73.55943 | 12055 ft | 323 kts | 242° |
| 2026-05-07 23:49 | 41.44045 | -73.58458 | 11586 ft | 312 kts | 242° |
| 2026-05-07 23:49 | 41.42941 | -73.60892 | 11111 ft | 303 kts | 242° |
| 2026-05-07 23:49 | 41.41867 | -73.63264 | 10655 ft | 296 kts | 242° |
| 2026-05-07 23:50 | 41.40841 | -73.65518 | 10223 ft | 282 kts | 243° |
| 2026-05-07 23:50 | 41.39857 | -73.67678 | 9757 ft | 271 kts | 243° |
| 2026-05-07 23:50 | 41.38896 | -73.69796 | 9313 ft | 266 kts | 243° |
| 2026-05-07 23:50 | 41.37946 | -73.71892 | 8900 ft | 263 kts | 243° |
| 2026-05-07 23:51 | 41.37014 | -73.73940 | 8502 ft | 261 kts | 243° |
| 2026-05-07 23:51 | 41.35820 | -73.75754 | 8194 ft | 269 kts | 216° |
| 2026-05-07 23:51 | 41.33987 | -73.76416 | 8106 ft | 283 kts | 185° |
| 2026-05-07 23:51 | 41.32005 | -73.76293 | 8062 ft | 288 kts | 178° |
| 2026-05-07 23:52 | 41.30008 | -73.75899 | 8044 ft | 293 kts | 171° |
| 2026-05-07 23:52 | 41.28140 | -73.74753 | 8028 ft | 301 kts | 147° |
| 2026-05-07 23:52 | 41.26451 | -73.73096 | 8028 ft | 303 kts | 145° |
| 2026-05-07 23:52 | 41.24776 | -73.71383 | 8016 ft | 304 kts | 144° |
| 2026-05-07 23:53 | 41.23096 | -73.69682 | 8003 ft | 303 kts | 146° |
| 2026-05-07 23:53 | 41.21425 | -73.68073 | 8001 ft | 302 kts | 149° |
| 2026-05-07 23:53 | 41.19689 | -73.66503 | 7697 ft | 300 kts | 149° |
| 2026-05-07 23:53 | 41.17993 | -73.65002 | 7308 ft | 295 kts | 149° |
| 2026-05-07 23:54 | 41.16316 | -73.63511 | 6933 ft | 292 kts | 149° |
| 2026-05-07 23:54 | 41.14645 | -73.62011 | 6558 ft | 288 kts | 148° |
| 2026-05-07 23:54 | 41.12945 | -73.60660 | 6157 ft | 281 kts | 163° |
| 2026-05-07 23:54 | 41.11069 | -73.60454 | 5746 ft | 267 kts | 196° |
| 2026-05-07 23:55 | 41.09344 | -73.61226 | 5380 ft | 258 kts | 209° |
| 2026-05-07 23:55 | 41.07774 | -73.62339 | 5006 ft | 254 kts | 215° |
| 2026-05-07 23:55 | 41.06300 | -73.63601 | 4630 ft | 254 kts | 218° |
| 2026-05-07 23:55 | 41.04852 | -73.64933 | 4291 ft | 260 kts | 218° |
| 2026-05-07 23:56 | 41.03382 | -73.66237 | 4133 ft | 257 kts | 216° |
| 2026-05-07 23:56 | 41.01898 | -73.67494 | 4044 ft | 250 kts | 215° |
| 2026-05-07 23:56 | 41.00440 | -73.68687 | 4020 ft | 243 kts | 214° |
| 2026-05-07 23:56 | 40.99019 | -73.69857 | 4001 ft | 242 kts | 214° |
| 2026-05-07 23:57 | 40.97547 | -73.71075 | 4010 ft | 256 kts | 214° |
| 2026-05-07 23:57 | 40.96009 | -73.72332 | 4011 ft | 264 kts | 214° |
| 2026-05-07 23:57 | 40.94475 | -73.73585 | 4011 ft | 270 kts | 214° |
| 2026-05-07 23:57 | 40.92863 | -73.74911 | 4008 ft | 275 kts | 214° |
| 2026-05-07 23:58 | 40.91237 | -73.76249 | 4005 ft | 276 kts | 214° |
| 2026-05-07 23:58 | 40.89614 | -73.77586 | 4000 ft | 273 kts | 214° |
| 2026-05-07 23:58 | 40.88013 | -73.78911 | 4003 ft | 270 kts | 214° |
| 2026-05-07 23:58 | 40.86430 | -73.80214 | 4004 ft | 267 kts | 214° |
| 2026-05-07 23:59 | 40.84853 | -73.81517 | 3999 ft | 267 kts | 216° |
| 2026-05-07 23:59 | 40.83564 | -73.83230 | 3990 ft | 263 kts | 235° |
| 2026-05-07 23:59 | 40.82473 | -73.85176 | 4000 ft | 265 kts | 235° |
| 2026-05-07 23:59 | 40.81374 | -73.87138 | 4012 ft | 267 kts | 236° |
| 2026-05-08 00:00 | 40.80274 | -73.89125 | 4012 ft | 269 kts | 236° |
| 2026-05-08 00:00 | 40.79175 | -73.91130 | 4006 ft | 270 kts | 236° |
| 2026-05-08 00:00 | 40.78087 | -73.93132 | 3995 ft | 267 kts | 237° |
| 2026-05-08 00:00 | 40.76999 | -73.95109 | 3996 ft | 265 kts | 236° |
| 2026-05-08 00:01 | 40.75926 | -73.97077 | 4011 ft | 264 kts | 236° |
| 2026-05-08 00:01 | 40.74862 | -73.99044 | 4019 ft | 263 kts | 237° |
| 2026-05-08 00:01 | 40.73832 | -74.00941 | 4016 ft | 262 kts | 236° |
| 2026-05-08 00:01 | 40.72778 | -74.02893 | 4021 ft | 261 kts | 236° |
| 2026-05-08 00:02 | 40.71739 | -74.04843 | 4024 ft | 260 kts | 236° |
| 2026-05-08 00:02 | 40.70689 | -74.06785 | 4005 ft | 260 kts | 232° |
| 2026-05-08 00:02 | 40.69232 | -74.08197 | 3783 ft | 264 kts | 205° |
| 2026-05-08 00:02 | 40.67584 | -74.09192 | 3553 ft | 269 kts | 207° |
| 2026-05-08 00:03 | 40.65882 | -74.10255 | 3305 ft | 272 kts | 207° |
| 2026-05-08 00:03 | 40.64173 | -74.11315 | 3148 ft | 271 kts | 206° |
| 2026-05-08 00:03 | 40.62476 | -74.12359 | 3073 ft | 267 kts | 206° |
| 2026-05-08 00:03 | 40.60815 | -74.13384 | 3039 ft | 258 kts | 206° |
| 2026-05-08 00:04 | 40.59225 | -74.14273 | 2997 ft | 242 kts | 195° |
| 2026-05-08 00:04 | 40.57621 | -74.14090 | 2981 ft | 231 kts | 153° |
| 2026-05-08 00:04 | 40.56498 | -74.12701 | 3014 ft | 225 kts | 121° |
| 2026-05-08 00:04 | 40.55667 | -74.10955 | 3014 ft | 227 kts | 120° |
| 2026-05-08 00:05 | 40.54846 | -74.09169 | 3015 ft | 229 kts | 117° |
| 2026-05-08 00:05 | 40.54471 | -74.07179 | 3008 ft | 225 kts | 80° |
| 2026-05-08 00:05 | 40.55152 | -74.05410 | 3041 ft | 218 kts | 37° |
| 2026-05-08 00:05 | 40.56522 | -74.04734 | 3075 ft | 212 kts | 356° |
| 2026-05-08 00:06 | 40.58000 | -74.04772 | 3037 ft | 217 kts | 12° |
| 2026-05-08 00:06 | 40.59367 | -74.03874 | 3051 ft | 219 kts | 28° |
| 2026-05-08 00:06 | 40.60630 | -74.02790 | 3045 ft | 220 kts | 33° |
| 2026-05-08 00:06 | 40.61869 | -74.01608 | 3048 ft | 220 kts | 34° |
| 2026-05-08 00:07 | 40.63067 | -74.00412 | 3041 ft | 220 kts | 36° |
| 2026-05-08 00:07 | 40.64245 | -73.99195 | 3041 ft | 219 kts | 36° |
| 2026-05-08 00:07 | 40.65422 | -73.97974 | 3143 ft | 206 kts | 36° |
| 2026-05-08 00:07 | 40.66535 | -73.96875 | 3079 ft | 195 kts | 32° |
| 2026-05-08 00:08 | 40.67608 | -73.95926 | 2874 ft | 180 kts | 30° |
| 2026-05-08 00:08 | 40.68680 | -73.95035 | 2696 ft | 178 kts | 30° |
| 2026-05-08 00:08 | 40.69690 | -73.94147 | 2717 ft | 177 kts | 36° |
| 2026-05-08 00:08 | 40.70583 | -73.93040 | 2577 ft | 176 kts | 43° |
| 2026-05-08 00:09 | 40.71431 | -73.91835 | 2411 ft | 183 kts | 44° |
| 2026-05-08 00:09 | 40.72067 | -73.90380 | 2248 ft | 188 kts | 72° |
| 2026-05-08 00:09 | 40.72351 | -73.88729 | 2084 ft | 183 kts | 74° |
| 2026-05-08 00:09 | 40.72615 | -73.87089 | 1838 ft | 182 kts | 75° |
| 2026-05-08 00:10 | 40.72860 | -73.85502 | 1533 ft | 169 kts | 76° |
| 2026-05-08 00:10 | 40.73298 | -73.84239 | 1222 ft | 146 kts | 37° |
| 2026-05-08 00:10 | 40.74149 | -73.83565 | 1286 ft | 135 kts | 30° |
| 2026-05-08 00:10 | 40.75072 | -73.83199 | 1135 ft | 149 kts | 353° |
| 2026-05-08 00:11 | 40.76002 | -73.83623 | 841 ft | 133 kts | 334° |
| 2026-05-08 00:11 | 40.76607 | -73.84499 | 371 ft | 135 kts | 307° |
| 2026-05-08 00:11 | 40.76941 | -73.85167 | 202 ft | 129 kts | 303° |
| 2026-05-08 00:11 | 40.77494 | -73.86319 | 11 ft | 60 kts | 302° |
| 2026-05-08 00:12 | 40.77606 | -73.86553 | 10 ft | 41 kts | 302° |
| 2026-05-08 00:12 | 40.77674 | -73.86748 | 11 ft | 20 kts | 278° |
| 2026-05-08 00:12 | 40.77674 | -73.86871 | 10 ft | 5 kts | 225° |
| 2026-05-08 00:12 | 40.77655 | -73.86873 | 10 ft | 6 kts | 152° |
| 2026-05-08 00:13 | 40.77611 | -73.86793 | 10 ft | 12 kts | 122° |
| 2026-05-08 00:13 | 40.77566 | -73.86698 | 9 ft | 13 kts | 121° |
| 2026-05-08 00:13 | 40.77517 | -73.86596 | 8 ft | 13 kts | 122° |
| 2026-05-08 00:13 | 40.77472 | -73.86500 | 10 ft | 11 kts | 122° |
| 2026-05-08 00:14 | 40.77434 | -73.86419 | 11 ft | 10 kts | 123° |
| 2026-05-08 00:14 | 40.77418 | -73.86389 | 11 ft | 3 kts | 124° |
| 2026-05-08 00:14 | 40.77377 | -73.86303 | 11 ft | 19 kts | 122° |
| 2026-05-08 00:14 | 40.77292 | -73.86130 | 14 ft | 18 kts | 129° |
| 2026-05-08 00:15 | 40.77221 | -73.86111 | 12 ft | 10 kts | 216° |
| 2026-05-08 00:15 | 40.77164 | -73.86165 | 11 ft | 10 kts | 212° |
| 2026-05-08 00:15 | 40.77117 | -73.86198 | 11 ft | 5 kts | 211° |